New Harbour, Canada
Current Conditions -  °F | °C
As of 11:32 AM on Sunday 23 Nov 2014 (Local Time) from CYYT Reporting Station
Snow Showers Snow Showers  
Wind Chill: 22°   Ceiling: 1500
Heat Index: 34°   Visibility: 3mi
Dew Point: 32°   Wind: 21mph
Humidity: 93%   Direction: 280°W
Pressure: 29.7"   Gusts: NA
Location:  47.58°N, 53.55°W
Report Text: CYYT 231432Z 28018KT 3SM -SHSN OVC015 01/00 A2970 RMK SC8 SLP065
Loading
Personal Weather Stations






























Interactive Weather Map New forecast layout! Learn more

10-Day Weather Forecast

Advertisements
Track Severe Weather on mobile